sensor_id;sensor_type;location;lat;lon;timestamp;P1;durP1;ratioP1;P2;durP2;ratioP2
77586;SDS011;66744;49.716;17.158;2023-06-22T00:00:30;12.80;;;4.80;;
77586;SDS011;66744;49.716;17.158;2023-06-22T00:03:32;14.23;;;4.93;;
77586;SDS011;66744;49.716;17.158;2023-06-22T00:06:34;11.02;;;5.53;;
77586;SDS011;66744;49.716;17.158;2023-06-22T00:09:38;13.50;;;6.30;;
77586;SDS011;66744;49.716;17.158;2023-06-22T00:12:40;11.40;;;5.50;;
77586;SDS011;66744;49.716;17.158;2023-06-22T00:15:41;12.48;;;5.53;;
77586;SDS011;66744;49.716;17.158;2023-06-22T00:18:43;13.90;;;5.85;;
77586;SDS011;66744;49.716;17.158;2023-06-22T00:21:48;14.77;;;5.65;;
77586;SDS011;66744;49.716;17.158;2023-06-22T00:24:55;10.52;;;5.47;;
77586;SDS011;66744;49.716;17.158;2023-06-22T00:28:04;13.68;;;6.03;;
77586;SDS011;66744;49.716;17.158;2023-06-22T00:31:06;14.60;;;6.32;;
77586;SDS011;66744;49.716;17.158;2023-06-22T00:34:08;13.05;;;6.25;;
77586;SDS011;66744;49.716;17.158;2023-06-22T00:37:10;16.13;;;6.65;;
77586;SDS011;66744;49.716;17.158;2023-06-22T00:40:14;11.10;;;5.85;;
77586;SDS011;66744;49.716;17.158;2023-06-22T00:43:16;16.27;;;7.50;;
77586;SDS011;66744;49.716;17.158;2023-06-22T00:46:17;16.20;;;6.57;;
77586;SDS011;66744;49.716;17.158;2023-06-22T00:49:19;9.02;;;6.00;;
77586;SDS011;66744;49.716;17.158;2023-06-22T00:52:21;13.77;;;6.18;;
77586;SDS011;66744;49.716;17.158;2023-06-22T00:55:27;12.73;;;5.93;;
77586;SDS011;66744;49.716;17.158;2023-06-22T00:58:29;11.77;;;5.82;;
77586;SDS011;66744;49.716;17.158;2023-06-22T01:01:31;12.45;;;5.88;;
77586;SDS011;66744;49.716;17.158;2023-06-22T01:04:37;16.55;;;5.72;;
77586;SDS011;66744;49.716;17.158;2023-06-22T01:07:43;13.10;;;6.38;;
77586;SDS011;66744;49.716;17.158;2023-06-22T01:17:45;12.65;;;6.22;;
77586;SDS011;66744;49.716;17.158;2023-06-22T01:20:54;16.65;;;6.18;;
77586;SDS011;66744;49.716;17.158;2023-06-22T01:24:07;11.77;;;5.60;;
77586;SDS011;66744;49.716;17.158;2023-06-22T01:27:43;13.25;;;5.43;;
77586;SDS011;66744;49.716;17.158;2023-06-22T01:31:04;9.20;;;4.32;;
77586;SDS011;66744;49.716;17.158;2023-06-22T01:34:08;8.95;;;4.60;;
77586;SDS011;66744;49.716;17.158;2023-06-22T01:37:13;12.50;;;5.32;;
77586;SDS011;66744;49.716;17.158;2023-06-22T01:40:18;10.23;;;4.97;;
77586;SDS011;66744;49.716;17.158;2023-06-22T01:43:21;12.45;;;4.90;;
77586;SDS011;66744;49.716;17.158;2023-06-22T01:46:24;14.93;;;6.50;;
77586;SDS011;66744;49.716;17.158;2023-06-22T01:49:34;9.00;;;5.25;;
77586;SDS011;66744;49.716;17.158;2023-06-22T01:52:45;12.40;;;6.13;;
77586;SDS011;66744;49.716;17.158;2023-06-22T01:55:49;11.45;;;5.63;;
77586;SDS011;66744;49.716;17.158;2023-06-22T01:59:16;10.90;;;6.53;;
77586;SDS011;66744;49.716;17.158;2023-06-22T02:05:50;11.23;;;5.50;;
77586;SDS011;66744;49.716;17.158;2023-06-22T02:09:02;13.45;;;6.45;;
77586;SDS011;66744;49.716;17.158;2023-06-22T02:12:10;6.13;;;4.25;;
77586;SDS011;66744;49.716;17.158;2023-06-22T02:15:14;9.55;;;4.95;;
77586;SDS011;66744;49.716;17.158;2023-06-22T02:18:21;10.38;;;4.63;;
77586;SDS011;66744;49.716;17.158;2023-06-22T02:21:26;7.78;;;4.30;;
77586;SDS011;66744;49.716;17.158;2023-06-22T02:24:30;8.90;;;5.28;;
77586;SDS011;66744;49.716;17.158;2023-06-22T02:30:59;6.32;;;3.78;;
77586;SDS011;66744;49.716;17.158;2023-06-22T02:34:06;6.38;;;3.55;;
77586;SDS011;66744;49.716;17.158;2023-06-22T02:37:10;6.55;;;3.85;;
77586;SDS011;66744;49.716;17.158;2023-06-22T02:40:19;11.40;;;4.70;;
77586;SDS011;66744;49.716;17.158;2023-06-22T02:43:31;9.88;;;4.10;;
77586;SDS011;66744;49.716;17.158;2023-06-22T02:46:40;10.02;;;5.35;;
77586;SDS011;66744;49.716;17.158;2023-06-22T02:49:44;9.73;;;4.55;;
77586;SDS011;66744;49.716;17.158;2023-06-22T02:52:50;7.07;;;4.00;;
77586;SDS011;66744;49.716;17.158;2023-06-22T02:55:55;8.82;;;4.28;;
77586;SDS011;66744;49.716;17.158;2023-06-22T02:59:04;7.85;;;5.22;;
77586;SDS011;66744;49.716;17.158;2023-06-22T03:02:15;6.55;;;4.78;;
77586;SDS011;66744;49.716;17.158;2023-06-22T03:05:17;6.53;;;4.13;;
77586;SDS011;66744;49.716;17.158;2023-06-22T03:08:20;9.63;;;5.50;;
77586;SDS011;66744;49.716;17.158;2023-06-22T03:11:49;9.88;;;5.97;;
77586;SDS011;66744;49.716;17.158;2023-06-22T03:14:54;9.77;;;5.93;;
77586;SDS011;66744;49.716;17.158;2023-06-22T03:18:15;11.55;;;6.18;;
77586;SDS011;66744;49.716;17.158;2023-06-22T03:21:45;10.93;;;6.72;;
77586;SDS011;66744;49.716;17.158;2023-06-22T03:24:50;12.30;;;6.57;;
77586;SDS011;66744;49.716;17.158;2023-06-22T03:27:54;15.98;;;8.45;;
77586;SDS011;66744;49.716;17.158;2023-06-22T03:31:15;19.73;;;9.05;;
77586;SDS011;66744;49.716;17.158;2023-06-22T03:34:46;16.65;;;8.15;;
77586;SDS011;66744;49.716;17.158;2023-06-22T03:37:50;15.60;;;7.72;;
77586;SDS011;66744;49.716;17.158;2023-06-22T03:44:37;7.90;;;5.78;;
77586;SDS011;66744;49.716;17.158;2023-06-22T03:47:40;9.43;;;4.97;;
77586;SDS011;66744;49.716;17.158;2023-06-22T03:50:48;10.63;;;5.28;;
77586;SDS011;66744;49.716;17.158;2023-06-22T03:53:50;10.70;;;5.88;;
77586;SDS011;66744;49.716;17.158;2023-06-22T03:56:57;9.10;;;5.63;;
77586;SDS011;66744;49.716;17.158;2023-06-22T03:59:59;11.32;;;6.03;;
77586;SDS011;66744;49.716;17.158;2023-06-22T04:06:33;8.85;;;6.15;;
77586;SDS011;66744;49.716;17.158;2023-06-22T04:09:38;7.80;;;5.90;;
77586;SDS011;66744;49.716;17.158;2023-06-22T04:12:40;8.05;;;5.03;;
77586;SDS011;66744;49.716;17.158;2023-06-22T04:19:21;7.70;;;4.95;;
77586;SDS011;66744;49.716;17.158;2023-06-22T04:22:28;6.68;;;5.03;;
77586;SDS011;66744;49.716;17.158;2023-06-22T04:25:55;8.93;;;5.80;;
77586;SDS011;66744;49.716;17.158;2023-06-22T04:28:57;5.72;;;5.00;;
77586;SDS011;66744;49.716;17.158;2023-06-22T04:31:58;12.55;;;6.28;;
77586;SDS011;66744;49.716;17.158;2023-06-22T04:35:04;8.98;;;6.00;;
77586;SDS011;66744;49.716;17.158;2023-06-22T04:38:06;10.48;;;6.50;;
77586;SDS011;66744;49.716;17.158;2023-06-22T04:41:09;9.68;;;7.00;;
77586;SDS011;66744;49.716;17.158;2023-06-22T04:44:18;9.43;;;6.80;;
77586;SDS011;66744;49.716;17.158;2023-06-22T04:47:26;12.60;;;8.05;;
77586;SDS011;66744;49.716;17.158;2023-06-22T04:50:30;12.63;;;8.45;;
77586;SDS011;66744;49.716;17.158;2023-06-22T04:53:31;13.38;;;8.05;;
77586;SDS011;66744;49.716;17.158;2023-06-22T04:56:35;15.55;;;8.10;;
77586;SDS011;66744;49.716;17.158;2023-06-22T04:59:44;12.05;;;8.50;;
77586;SDS011;66744;49.716;17.158;2023-06-22T05:02:46;11.63;;;8.35;;
77586;SDS011;66744;49.716;17.158;2023-06-22T05:05:48;11.82;;;9.23;;
77586;SDS011;66744;49.716;17.158;2023-06-22T05:08:50;13.00;;;8.43;;
77586;SDS011;66744;49.716;17.158;2023-06-22T05:12:01;12.05;;;8.82;;
77586;SDS011;66744;49.716;17.158;2023-06-22T05:15:04;9.40;;;6.57;;
77586;SDS011;66744;49.716;17.158;2023-06-22T05:18:08;10.55;;;7.20;;
77586;SDS011;66744;49.716;17.158;2023-06-22T05:21:12;11.23;;;7.93;;
77586;SDS011;66744;49.716;17.158;2023-06-22T05:24:14;11.18;;;6.38;;
77586;SDS011;66744;49.716;17.158;2023-06-22T05:27:16;8.68;;;6.22;;
77586;SDS011;66744;49.716;17.158;2023-06-22T05:30:19;8.38;;;6.10;;
77586;SDS011;66744;49.716;17.158;2023-06-22T05:33:21;12.32;;;7.15;;
77586;SDS011;66744;49.716;17.158;2023-06-22T05:36:25;12.77;;;6.95;;
77586;SDS011;66744;49.716;17.158;2023-06-22T05:39:47;10.88;;;7.20;;
77586;SDS011;66744;49.716;17.158;2023-06-22T05:42:52;13.40;;;7.72;;
77586;SDS011;66744;49.716;17.158;2023-06-22T05:45:54;12.15;;;7.60;;
77586;SDS011;66744;49.716;17.158;2023-06-22T05:48:55;11.68;;;7.60;;
77586;SDS011;66744;49.716;17.158;2023-06-22T05:51:57;11.85;;;8.50;;
77586;SDS011;66744;49.716;17.158;2023-06-22T05:54:58;12.73;;;7.65;;
77586;SDS011;66744;49.716;17.158;2023-06-22T05:58:04;15.60;;;7.57;;
77586;SDS011;66744;49.716;17.158;2023-06-22T06:01:19;13.80;;;7.55;;
77586;SDS011;66744;49.716;17.158;2023-06-22T06:04:27;16.13;;;8.65;;
77586;SDS011;66744;49.716;17.158;2023-06-22T06:07:28;13.85;;;8.88;;
77586;SDS011;66744;49.716;17.158;2023-06-22T06:10:31;16.85;;;7.03;;
77586;SDS011;66744;49.716;17.158;2023-06-22T06:13:42;10.93;;;6.53;;
77586;SDS011;66744;49.716;17.158;2023-06-22T06:16:55;13.75;;;8.15;;
77586;SDS011;66744;49.716;17.158;2023-06-22T06:19:58;13.73;;;9.05;;
77586;SDS011;66744;49.716;17.158;2023-06-22T06:23:21;11.60;;;8.45;;
77586;SDS011;66744;49.716;17.158;2023-06-22T06:26:30;16.50;;;9.27;;
77586;SDS011;66744;49.716;17.158;2023-06-22T06:29:53;15.98;;;9.25;;
77586;SDS011;66744;49.716;17.158;2023-06-22T06:33:09;10.63;;;6.88;;
77586;SDS011;66744;49.716;17.158;2023-06-22T06:36:11;11.70;;;6.47;;
77586;SDS011;66744;49.716;17.158;2023-06-22T06:39:22;12.63;;;7.90;;
77586;SDS011;66744;49.716;17.158;2023-06-22T06:42:40;12.55;;;6.82;;
77586;SDS011;66744;49.716;17.158;2023-06-22T06:45:55;10.18;;;6.47;;
77586;SDS011;66744;49.716;17.158;2023-06-22T06:49:06;10.85;;;6.93;;
77586;SDS011;66744;49.716;17.158;2023-06-22T06:52:34;10.48;;;7.28;;
77586;SDS011;66744;49.716;17.158;2023-06-22T06:55:43;9.80;;;6.93;;
77586;SDS011;66744;49.716;17.158;2023-06-22T06:58:50;14.10;;;6.82;;
77586;SDS011;66744;49.716;17.158;2023-06-22T07:01:57;15.30;;;7.47;;
77586;SDS011;66744;49.716;17.158;2023-06-22T07:05:01;11.98;;;6.43;;
77586;SDS011;66744;49.716;17.158;2023-06-22T07:08:08;8.95;;;6.53;;
77586;SDS011;66744;49.716;17.158;2023-06-22T07:11:13;8.80;;;6.43;;
77586;SDS011;66744;49.716;17.158;2023-06-22T07:14:19;8.95;;;7.03;;
77586;SDS011;66744;49.716;17.158;2023-06-22T07:17:24;13.82;;;7.82;;
77586;SDS011;66744;49.716;17.158;2023-06-22T07:20:35;13.45;;;8.43;;
77586;SDS011;66744;49.716;17.158;2023-06-22T07:23:44;12.43;;;7.47;;
77586;SDS011;66744;49.716;17.158;2023-06-22T07:27:04;10.65;;;8.20;;
77586;SDS011;66744;49.716;17.158;2023-06-22T07:30:07;13.55;;;9.10;;
77586;SDS011;66744;49.716;17.158;2023-06-22T07:33:12;15.85;;;9.80;;
77586;SDS011;66744;49.716;17.158;2023-06-22T07:36:17;15.63;;;10.05;;
77586;SDS011;66744;49.716;17.158;2023-06-22T07:39:22;17.70;;;10.30;;
77586;SDS011;66744;49.716;17.158;2023-06-22T07:42:31;11.45;;;9.90;;
77586;SDS011;66744;49.716;17.158;2023-06-22T07:45:37;16.00;;;9.93;;
77586;SDS011;66744;49.716;17.158;2023-06-22T07:48:49;14.25;;;9.90;;
77586;SDS011;66744;49.716;17.158;2023-06-22T07:52:04;12.60;;;9.88;;
77586;SDS011;66744;49.716;17.158;2023-06-22T07:55:19;18.60;;;11.90;;
77586;SDS011;66744;49.716;17.158;2023-06-22T07:58:41;15.50;;;10.45;;
77586;SDS011;66744;49.716;17.158;2023-06-22T08:02:01;16.80;;;12.45;;
77586;SDS011;66744;49.716;17.158;2023-06-22T08:05:14;16.52;;;12.10;;
77586;SDS011;66744;49.716;17.158;2023-06-22T08:08:16;15.38;;;11.93;;
77586;SDS011;66744;49.716;17.158;2023-06-22T08:11:23;16.38;;;11.27;;
77586;SDS011;66744;49.716;17.158;2023-06-22T08:14:41;22.30;;;12.75;;
77586;SDS011;66744;49.716;17.158;2023-06-22T08:17:53;13.25;;;10.70;;
77586;SDS011;66744;49.716;17.158;2023-06-22T08:21:34;15.90;;;12.38;;
77586;SDS011;66744;49.716;17.158;2023-06-22T08:24:53;19.70;;;14.23;;
77586;SDS011;66744;49.716;17.158;2023-06-22T08:28:13;15.95;;;13.18;;
77586;SDS011;66744;49.716;17.158;2023-06-22T08:31:17;14.30;;;12.85;;
77586;SDS011;66744;49.716;17.158;2023-06-22T08:34:21;16.58;;;14.18;;
77586;SDS011;66744;49.716;17.158;2023-06-22T08:37:28;22.02;;;14.80;;
77586;SDS011;66744;49.716;17.158;2023-06-22T08:40:39;18.77;;;15.00;;
77586;SDS011;66744;49.716;17.158;2023-06-22T08:44:09;18.83;;;14.82;;
77586;SDS011;66744;49.716;17.158;2023-06-22T08:47:28;19.23;;;14.77;;
77586;SDS011;66744;49.716;17.158;2023-06-22T08:50:46;21.65;;;17.33;;
77586;SDS011;66744;49.716;17.158;2023-06-22T08:54:25;20.52;;;16.95;;
77586;SDS011;66744;49.716;17.158;2023-06-22T08:57:54;17.80;;;15.73;;
77586;SDS011;66744;49.716;17.158;2023-06-22T09:00:58;21.60;;;17.00;;
77586;SDS011;66744;49.716;17.158;2023-06-22T09:04:15;17.70;;;15.73;;
77586;SDS011;66744;49.716;17.158;2023-06-22T09:07:45;17.20;;;15.43;;
77586;SDS011;66744;49.716;17.158;2023-06-22T09:21:07;17.38;;;14.98;;
77586;SDS011;66744;49.716;17.158;2023-06-22T09:24:19;18.38;;;14.68;;
77586;SDS011;66744;49.716;17.158;2023-06-22T09:27:33;16.80;;;14.80;;
77586;SDS011;66744;49.716;17.158;2023-06-22T09:30:50;15.07;;;13.55;;
77586;SDS011;66744;49.716;17.158;2023-06-22T09:34:04;15.75;;;13.57;;
77586;SDS011;66744;49.716;17.158;2023-06-22T09:37:13;16.05;;;14.35;;
77586;SDS011;66744;49.716;17.158;2023-06-22T09:40:58;13.57;;;12.18;;
77586;SDS011;66744;49.716;17.158;2023-06-22T09:44:19;14.80;;;13.30;;
77586;SDS011;66744;49.716;17.158;2023-06-22T09:48:02;14.77;;;13.27;;
77586;SDS011;66744;49.716;17.158;2023-06-22T09:51:26;14.18;;;12.88;;
77586;SDS011;66744;49.716;17.158;2023-06-22T09:54:45;15.10;;;12.35;;
77586;SDS011;66744;49.716;17.158;2023-06-22T09:58:45;14.45;;;12.85;;
77586;SDS011;66744;49.716;17.158;2023-06-22T10:02:01;13.98;;;12.65;;
77586;SDS011;66744;49.716;17.158;2023-06-22T10:05:22;13.70;;;12.30;;
77586;SDS011;66744;49.716;17.158;2023-06-22T10:08:44;13.35;;;12.15;;
77586;SDS011;66744;49.716;17.158;2023-06-22T10:12:12;14.35;;;12.90;;
77586;SDS011;66744;49.716;17.158;2023-06-22T10:15:42;12.90;;;11.70;;
77586;SDS011;66744;49.716;17.158;2023-06-22T10:19:27;13.50;;;12.15;;
77586;SDS011;66744;49.716;17.158;2023-06-22T10:22:47;13.40;;;11.75;;
77586;SDS011;66744;49.716;17.158;2023-06-22T10:26:02;14.02;;;12.63;;
77586;SDS011;66744;49.716;17.158;2023-06-22T10:29:20;13.02;;;11.80;;
77586;SDS011;66744;49.716;17.158;2023-06-22T10:32:37;14.27;;;12.60;;
77586;SDS011;66744;49.716;17.158;2023-06-22T10:36:34;13.13;;;11.82;;
77586;SDS011;66744;49.716;17.158;2023-06-22T10:40:15;12.70;;;11.43;;
77586;SDS011;66744;49.716;17.158;2023-06-22T10:43:30;13.85;;;11.63;;
77586;SDS011;66744;49.716;17.158;2023-06-22T10:46:50;12.90;;;11.70;;
77586;SDS011;66744;49.716;17.158;2023-06-22T10:50:12;14.63;;;13.13;;
77586;SDS011;66744;49.716;17.158;2023-06-22T10:53:27;13.65;;;12.35;;
77586;SDS011;66744;49.716;17.158;2023-06-22T10:56:38;13.20;;;11.82;;
77586;SDS011;66744;49.716;17.158;2023-06-22T10:59:54;12.93;;;11.73;;
77586;SDS011;66744;49.716;17.158;2023-06-22T11:03:28;14.48;;;13.10;;
77586;SDS011;66744;49.716;17.158;2023-06-22T11:06:32;13.88;;;12.60;;
77586;SDS011;66744;49.716;17.158;2023-06-22T11:09:39;14.13;;;11.68;;
77586;SDS011;66744;49.716;17.158;2023-06-22T11:12:43;13.43;;;12.10;;
77586;SDS011;66744;49.716;17.158;2023-06-22T11:15:56;12.70;;;11.45;;
77586;SDS011;66744;49.716;17.158;2023-06-22T11:19:04;12.55;;;11.38;;
77586;SDS011;66744;49.716;17.158;2023-06-22T11:22:19;13.18;;;11.95;;
77586;SDS011;66744;49.716;17.158;2023-06-22T11:28:48;13.05;;;11.43;;
77586;SDS011;66744;49.716;17.158;2023-06-22T11:41:09;13.38;;;11.95;;
77586;SDS011;66744;49.716;17.158;2023-06-22T11:49:23;13.20;;;11.90;;
77586;SDS011;66744;49.716;17.158;2023-06-22T11:52:29;12.43;;;11.18;;
77586;SDS011;66744;49.716;17.158;2023-06-22T11:55:30;13.20;;;12.00;;
77586;SDS011;66744;49.716;17.158;2023-06-22T11:58:40;13.57;;;12.25;;
77586;SDS011;66744;49.716;17.158;2023-06-22T12:01:42;13.02;;;11.73;;
77586;SDS011;66744;49.716;17.158;2023-06-22T12:05:07;12.38;;;11.13;;
77586;SDS011;66744;49.716;17.158;2023-06-22T12:08:12;12.80;;;11.55;;
77586;SDS011;66744;49.716;17.158;2023-06-22T12:11:17;13.10;;;10.70;;
77586;SDS011;66744;49.716;17.158;2023-06-22T12:14:25;13.45;;;12.05;;
77586;SDS011;66744;49.716;17.158;2023-06-22T12:17:41;13.18;;;11.77;;
77586;SDS011;66744;49.716;17.158;2023-06-22T12:21:06;12.70;;;11.38;;
77586;SDS011;66744;49.716;17.158;2023-06-22T12:24:14;12.40;;;11.07;;
77586;SDS011;66744;49.716;17.158;2023-06-22T12:27:39;13.48;;;12.25;;
77586;SDS011;66744;49.716;17.158;2023-06-22T12:30:41;12.05;;;10.82;;
77586;SDS011;66744;49.716;17.158;2023-06-22T12:34:03;12.77;;;11.60;;
77586;SDS011;66744;49.716;17.158;2023-06-22T12:37:04;11.77;;;10.65;;
77586;SDS011;66744;49.716;17.158;2023-06-22T12:40:09;10.70;;;9.70;;
77586;SDS011;66744;49.716;17.158;2023-06-22T12:43:14;12.85;;;11.55;;
77586;SDS011;66744;49.716;17.158;2023-06-22T12:46:30;11.40;;;10.35;;
77586;SDS011;66744;49.716;17.158;2023-06-22T12:49:49;11.77;;;10.68;;
77586;SDS011;66744;49.716;17.158;2023-06-22T12:53:12;12.05;;;10.85;;
77586;SDS011;66744;49.716;17.158;2023-06-22T12:56:28;12.50;;;11.27;;
77586;SDS011;66744;49.716;17.158;2023-06-22T13:03:38;11.80;;;10.70;;
77586;SDS011;66744;49.716;17.158;2023-06-22T13:07:18;12.45;;;11.18;;
77586;SDS011;66744;49.716;17.158;2023-06-22T13:10:50;12.63;;;11.30;;
77586;SDS011;66744;49.716;17.158;2023-06-22T13:14:30;11.70;;;10.55;;
77586;SDS011;66744;49.716;17.158;2023-06-22T13:18:07;10.95;;;10.05;;
77586;SDS011;66744;49.716;17.158;2023-06-22T13:21:21;12.13;;;10.95;;
77586;SDS011;66744;49.716;17.158;2023-06-22T13:25:02;11.73;;;10.52;;
77586;SDS011;66744;49.716;17.158;2023-06-22T13:28:35;12.13;;;10.85;;
77586;SDS011;66744;49.716;17.158;2023-06-22T13:32:28;11.95;;;10.82;;
77586;SDS011;66744;49.716;17.158;2023-06-22T13:35:47;12.85;;;11.65;;
77586;SDS011;66744;49.716;17.158;2023-06-22T13:38:54;11.70;;;10.45;;
77586;SDS011;66744;49.716;17.158;2023-06-22T13:42:04;12.60;;;11.20;;
77586;SDS011;66744;49.716;17.158;2023-06-22T13:45:19;11.90;;;10.80;;
77586;SDS011;66744;49.716;17.158;2023-06-22T13:48:37;12.38;;;10.73;;
77586;SDS011;66744;49.716;17.158;2023-06-22T13:52:13;12.93;;;10.98;;
77586;SDS011;66744;49.716;17.158;2023-06-22T13:55:19;12.18;;;10.98;;
77586;SDS011;66744;49.716;17.158;2023-06-22T14:02:17;12.50;;;11.25;;
77586;SDS011;66744;49.716;17.158;2023-06-22T14:05:27;12.88;;;11.70;;
77586;SDS011;66744;49.716;17.158;2023-06-22T14:08:31;11.35;;;10.23;;
77586;SDS011;66744;49.716;17.158;2023-06-22T14:11:46;12.48;;;11.25;;
77586;SDS011;66744;49.716;17.158;2023-06-22T14:14:48;12.30;;;10.75;;
77586;SDS011;66744;49.716;17.158;2023-06-22T14:18:13;11.18;;;10.18;;
77586;SDS011;66744;49.716;17.158;2023-06-22T14:21:26;13.13;;;11.65;;
77586;SDS011;66744;49.716;17.158;2023-06-22T14:24:54;18.42;;;12.82;;
77586;SDS011;66744;49.716;17.158;2023-06-22T14:46:03;13.35;;;10.38;;
77586;SDS011;66744;49.716;17.158;2023-06-22T14:52:27;11.48;;;10.27;;
77586;SDS011;66744;49.716;17.158;2023-06-22T14:55:29;12.13;;;10.93;;
77586;SDS011;66744;49.716;17.158;2023-06-22T14:58:31;13.75;;;12.23;;
77586;SDS011;66744;49.716;17.158;2023-06-22T15:01:47;13.90;;;9.77;;
77586;SDS011;66744;49.716;17.158;2023-06-22T15:04:49;12.63;;;10.73;;
77586;SDS011;66744;49.716;17.158;2023-06-22T15:07:50;11.02;;;9.98;;
77586;SDS011;66744;49.716;17.158;2023-06-22T15:10:55;14.00;;;10.02;;
77586;SDS011;66744;49.716;17.158;2023-06-22T15:14:04;11.60;;;10.35;;
77586;SDS011;66744;49.716;17.158;2023-06-22T15:17:06;9.45;;;8.45;;
77586;SDS011;66744;49.716;17.158;2023-06-22T15:20:14;8.55;;;7.57;;
77586;SDS011;66744;49.716;17.158;2023-06-22T15:23:26;11.52;;;7.75;;
77586;SDS011;66744;49.716;17.158;2023-06-22T15:26:30;7.72;;;7.00;;
77586;SDS011;66744;49.716;17.158;2023-06-22T15:29:35;9.45;;;8.32;;
77586;SDS011;66744;49.716;17.158;2023-06-22T15:32:46;8.63;;;7.70;;
77586;SDS011;66744;49.716;17.158;2023-06-22T15:35:55;8.05;;;7.15;;
77586;SDS011;66744;49.716;17.158;2023-06-22T15:38:59;12.73;;;8.02;;
77586;SDS011;66744;49.716;17.158;2023-06-22T15:42:00;10.85;;;7.70;;
77586;SDS011;66744;49.716;17.158;2023-06-22T15:45:02;8.18;;;6.85;;
77586;SDS011;66744;49.716;17.158;2023-06-22T15:48:15;7.93;;;6.72;;
77586;SDS011;66744;49.716;17.158;2023-06-22T15:51:26;8.93;;;7.40;;
77586;SDS011;66744;49.716;17.158;2023-06-22T15:54:32;9.73;;;7.53;;
77586;SDS011;66744;49.716;17.158;2023-06-22T15:57:36;11.43;;;8.35;;
77586;SDS011;66744;49.716;17.158;2023-06-22T16:00:40;11.18;;;8.50;;
77586;SDS011;66744;49.716;17.158;2023-06-22T16:03:58;11.95;;;9.52;;
77586;SDS011;66744;49.716;17.158;2023-06-22T16:07:00;11.52;;;9.25;;
77586;SDS011;66744;49.716;17.158;2023-06-22T16:10:02;10.52;;;9.43;;
77586;SDS011;66744;49.716;17.158;2023-06-22T16:13:10;12.23;;;9.13;;
77586;SDS011;66744;49.716;17.158;2023-06-22T16:16:15;10.60;;;9.60;;
77586;SDS011;66744;49.716;17.158;2023-06-22T16:19:30;11.55;;;10.07;;
77586;SDS011;66744;49.716;17.158;2023-06-22T16:22:31;11.07;;;9.77;;
77586;SDS011;66744;49.716;17.158;2023-06-22T16:25:33;14.38;;;10.52;;
77586;SDS011;66744;49.716;17.158;2023-06-22T16:28:34;11.60;;;10.07;;
77586;SDS011;66744;49.716;17.158;2023-06-22T16:31:36;12.68;;;9.90;;
77586;SDS011;66744;49.716;17.158;2023-06-22T16:34:38;10.88;;;9.77;;
77586;SDS011;66744;49.716;17.158;2023-06-22T16:37:40;12.50;;;11.30;;
77586;SDS011;66744;49.716;17.158;2023-06-22T16:40:41;10.85;;;9.80;;
77586;SDS011;66744;49.716;17.158;2023-06-22T16:43:43;10.57;;;9.48;;
77586;SDS011;66744;49.716;17.158;2023-06-22T16:47:17;12.35;;;11.15;;
77586;SDS011;66744;49.716;17.158;2023-06-22T16:50:33;11.52;;;9.93;;
77586;SDS011;66744;49.716;17.158;2023-06-22T16:53:41;11.32;;;10.05;;
77586;SDS011;66744;49.716;17.158;2023-06-22T16:56:49;11.65;;;10.50;;
77586;SDS011;66744;49.716;17.158;2023-06-22T17:03:48;13.70;;;11.05;;
77586;SDS011;66744;49.716;17.158;2023-06-22T17:07:10;13.10;;;10.90;;
77586;SDS011;66744;49.716;17.158;2023-06-22T17:14:40;11.95;;;10.75;;
77586;SDS011;66744;49.716;17.158;2023-06-22T17:17:53;12.15;;;10.98;;
77586;SDS011;66744;49.716;17.158;2023-06-22T17:20:58;12.60;;;11.40;;
77586;SDS011;66744;49.716;17.158;2023-06-22T17:24:12;13.00;;;11.73;;
77586;SDS011;66744;49.716;17.158;2023-06-22T17:31:51;12.45;;;11.25;;
77586;SDS011;66744;49.716;17.158;2023-06-22T17:35:09;11.15;;;9.98;;
77586;SDS011;66744;49.716;17.158;2023-06-22T17:38:15;13.82;;;11.65;;
77586;SDS011;66744;49.716;17.158;2023-06-22T17:41:38;11.32;;;10.07;;
77586;SDS011;66744;49.716;17.158;2023-06-22T17:45:01;12.68;;;11.32;;
77586;SDS011;66744;49.716;17.158;2023-06-22T17:48:32;14.20;;;11.88;;
77586;SDS011;66744;49.716;17.158;2023-06-22T17:51:46;19.63;;;13.25;;
77586;SDS011;66744;49.716;17.158;2023-06-22T17:54:51;15.25;;;11.43;;
77586;SDS011;66744;49.716;17.158;2023-06-22T17:57:58;13.38;;;11.85;;
77586;SDS011;66744;49.716;17.158;2023-06-22T18:01:01;13.20;;;11.90;;
77586;SDS011;66744;49.716;17.158;2023-06-22T18:04:13;13.80;;;11.40;;
77586;SDS011;66744;49.716;17.158;2023-06-22T18:07:54;13.30;;;11.95;;
77586;SDS011;66744;49.716;17.158;2023-06-22T18:15:20;14.77;;;13.20;;
77586;SDS011;66744;49.716;17.158;2023-06-22T18:18:48;13.43;;;12.13;;
77586;SDS011;66744;49.716;17.158;2023-06-22T18:21:56;13.82;;;12.63;;
77586;SDS011;66744;49.716;17.158;2023-06-22T18:25:25;14.52;;;13.02;;
77586;SDS011;66744;49.716;17.158;2023-06-22T18:28:30;13.95;;;12.25;;
77586;SDS011;66744;49.716;17.158;2023-06-22T18:32:23;14.48;;;12.98;;
77586;SDS011;66744;49.716;17.158;2023-06-22T18:35:31;14.43;;;12.93;;
77586;SDS011;66744;49.716;17.158;2023-06-22T18:38:45;14.23;;;12.43;;
77586;SDS011;66744;49.716;17.158;2023-06-22T18:42:00;14.48;;;12.35;;
77586;SDS011;66744;49.716;17.158;2023-06-22T18:45:24;13.80;;;12.40;;
77586;SDS011;66744;49.716;17.158;2023-06-22T18:52:35;18.88;;;12.65;;
77586;SDS011;66744;49.716;17.158;2023-06-22T18:56:20;13.90;;;11.70;;
77586;SDS011;66744;49.716;17.158;2023-06-22T19:07:18;14.55;;;12.10;;
77586;SDS011;66744;49.716;17.158;2023-06-22T19:21:36;11.65;;;10.52;;
77586;SDS011;66744;49.716;17.158;2023-06-22T19:38:03;14.88;;;13.38;;
77586;SDS011;66744;49.716;17.158;2023-06-22T19:41:20;14.38;;;12.25;;
77586;SDS011;66744;49.716;17.158;2023-06-22T19:44:37;14.73;;;13.32;;
77586;SDS011;66744;49.716;17.158;2023-06-22T19:48:35;13.38;;;12.07;;
77586;SDS011;66744;49.716;17.158;2023-06-22T19:52:18;18.83;;;12.23;;
77586;SDS011;66744;49.716;17.158;2023-06-22T20:01:02;11.80;;;10.60;;
77586;SDS011;66744;49.716;17.158;2023-06-22T20:10:04;14.48;;;13.07;;
77586;SDS011;66744;49.716;17.158;2023-06-22T20:24:08;13.55;;;12.20;;
77586;SDS011;66744;49.716;17.158;2023-06-22T20:43:20;15.32;;;11.52;;
77586;SDS011;66744;49.716;17.158;2023-06-22T20:48:03;13.10;;;11.70;;
77586;SDS011;66744;49.716;17.158;2023-06-22T20:56:30;14.35;;;12.20;;
77586;SDS011;66744;49.716;17.158;2023-06-22T21:05:02;13.52;;;12.18;;
77586;SDS011;66744;49.716;17.158;2023-06-22T21:08:46;12.73;;;11.48;;
77586;SDS011;66744;49.716;17.158;2023-06-22T21:13:19;13.02;;;11.68;;
77586;SDS011;66744;49.716;17.158;2023-06-22T21:17:48;12.75;;;11.35;;
77586;SDS011;66744;49.716;17.158;2023-06-22T21:21:51;13.25;;;12.02;;
77586;SDS011;66744;49.716;17.158;2023-06-22T21:26:07;14.63;;;13.23;;
77586;SDS011;66744;49.716;17.158;2023-06-22T21:29:52;14.70;;;12.95;;
77586;SDS011;66744;49.716;17.158;2023-06-22T21:38:58;13.55;;;11.38;;
77586;SDS011;66744;49.716;17.158;2023-06-22T21:43:30;13.57;;;12.13;;
77586;SDS011;66744;49.716;17.158;2023-06-22T22:15:42;14.57;;;11.27;;
77586;SDS011;66744;49.716;17.158;2023-06-22T22:19:46;14.38;;;12.40;;
77586;SDS011;66744;49.716;17.158;2023-06-22T22:23:09;15.90;;;12.68;;